Time;durP1;ratioP1;P1;durP2;ratioP2;P2;SDS_P1;SDS_P2;PMS_P1;PMS_P2;Temp;Humidity;BMP_temperature;BMP_pressure;BME280_temperature;BME280_humidity;BME280_pressure;Samples;Min_cycle;Max_cycle;Signal;HPM_P1;HPM_P2
2023/03/07 00:01:27;;;;;;;23.30;15.50;;;;;;;1.20;68.97;98389.30;107666;1254;74844;-40
2023/03/07 00:03:56;;;;;;;23.10;14.80;;;;;;;1.17;69.11;98384.60;107637;1254;70067;-40
2023/03/07 00:06:24;;;;;;;23.20;15.80;;;;;;;1.16;69.26;98386.54;107600;1254;73770;-40
2023/03/07 00:08:55;;;;;;;20.30;14.30;;;;;;;1.18;68.87;98380.81;107506;1254;61379;-40
2023/03/07 00:11:28;;;;;;;23.20;14.70;;;;;;;1.20;68.73;98379.86;107485;1253;61541;-40
2023/03/07 00:13:56;;;;;;;22.20;14.90;;;;;;;1.16;68.85;98376.17;107506;1253;74553;-40
2023/03/07 00:16:25;;;;;;;22.40;15.60;;;;;;;1.11;68.91;98373.91;107456;1254;70166;-40
2023/03/07 00:18:53;;;;;;;22.30;15.60;;;;;;;1.07;69.11;98370.88;107343;1254;71429;-40
2023/03/07 00:21:22;;;;;;;24.10;15.60;;;;;;;1.03;69.10;98365.81;107578;1254;60756;-41
2023/03/07 00:23:51;;;;;;;24.40;15.80;;;;;;;1.01;69.03;98366.95;107663;1254;61216;-41
2023/03/07 00:26:21;;;;;;;17.70;12.00;;;;;;;0.98;68.98;98358.95;107648;1256;75220;-41
2023/03/07 00:28:51;;;;;;;23.30;15.30;;;;;;;0.94;69.15;98360.20;107622;1257;67751;-41
2023/03/07 00:31:19;;;;;;;23.10;14.70;;;;;;;0.94;69.23;98358.91;107603;1254;73360;-41
2023/03/07 00:33:49;;;;;;;23.60;14.70;;;;;;;0.98;69.06;98354.71;107632;1254;60439;-41
2023/03/07 00:36:20;;;;;;;23.60;15.80;;;;;;;0.99;69.18;98353.23;107600;1257;60585;-41
2023/03/07 00:38:54;;;;;;;22.00;15.40;;;;;;;1.00;69.07;98350.35;107499;1254;75136;-41
2023/03/07 00:41:24;;;;;;;24.40;14.80;;;;;;;0.99;69.13;98345.61;107631;1254;69842;-41
2023/03/07 00:43:54;;;;;;;21.40;14.40;;;;;;;1.01;68.97;98344.09;107484;1253;72523;-41
2023/03/07 00:46:23;;;;;;;21.00;14.80;;;;;;;1.02;68.76;98340.70;107441;1254;60411;-41
2023/03/07 00:48:52;;;;;;;23.30;15.00;;;;;;;1.02;68.84;98342.90;106836;1254;1003627;-41
2023/03/07 00:51:26;;;;;;;24.40;16.20;;;;;;;0.97;68.73;98339.05;107577;1254;75037;-41
2023/03/07 00:53:55;;;;;;;23.30;15.20;;;;;;;0.90;68.71;98338.42;106791;1254;1016369;-41
2023/03/07 00:56:24;;;;;;;25.70;14.60;;;;;;;0.91;68.71;98341.40;107505;1254;73971;-41
2023/03/07 00:58:53;;;;;;;26.80;14.90;;;;;;;0.96;68.78;98342.05;107401;1254;60523;-41
2023/03/07 01:01:23;;;;;;;23.60;15.40;;;;;;;0.94;68.80;98334.92;107540;1254;61556;-38
2023/03/07 01:03:52;;;;;;;;;;;;;;;0.90;68.90;98332.17;107667;1254;72995;-38
2023/03/07 01:06:24;;;;;;;23.10;14.50;;;;;;;0.83;69.09;98322.48;107678;1254;69711;-38
2023/03/07 01:08:55;;;;;;;23.00;15.80;;;;;;;0.80;69.05;98320.83;107545;1254;72165;-38
2023/03/07 01:11:26;;;;;;;25.80;16.10;;;;;;;0.81;68.92;98319.82;107610;1254;60353;-38
2023/03/07 01:13:56;;;;;;;21.50;15.10;;;;;;;0.83;68.99;98311.81;107638;1254;61278;-39
2023/03/07 01:16:26;;;;;;;24.30;16.10;;;;;;;0.86;68.88;98311.84;106817;1259;1003096;-39
2023/03/07 01:18:57;;;;;;;31.20;16.20;;;;;;;0.83;68.72;98308.00;107650;1254;68242;-40
2023/03/07 01:21:31;;;;;;;20.00;14.30;;;;;;;0.84;68.68;98302.83;107540;1259;72674;-40
2023/03/07 01:24:04;;;;;;;23.30;15.10;;;;;;;0.89;68.72;98298.16;107495;1258;60503;-40
2023/03/07 01:26:34;;;;;;;23.60;14.90;;;;;;;0.90;68.55;98294.33;107540;1258;60008;-40
2023/03/07 01:29:03;;;;;;;22.50;15.00;;;;;;;0.92;68.53;98294.16;107680;1254;74675;-40
2023/03/07 01:31:34;;;;;;;26.30;15.90;;;;;;;0.92;68.43;98296.23;107514;1254;69123;-40
2023/03/07 01:34:05;;;;;;;23.10;15.00;;;;;;;0.94;68.45;98289.52;107638;1254;71870;-40
2023/03/07 01:36:36;;;;;;;27.20;15.60;;;;;;;1.00;68.46;98289.44;107593;1254;60774;-40
2023/03/07 01:39:16;;;;;;;20.20;14.10;;;;;;;1.07;68.09;98283.59;107629;1254;60337;-40
2023/03/07 01:41:51;;;;;;;25.60;15.20;;;;;;;1.09;67.78;98278.27;107591;1254;74424;-40
2023/03/07 01:44:24;;;;;;;26.10;15.70;;;;;;;1.07;67.77;98275.14;107598;1254;68795;-40
2023/03/07 01:46:58;;;;;;;25.50;15.50;;;;;;;1.05;67.43;98278.14;107526;1254;73601;-40
2023/03/07 01:49:51;;;;;;;22.70;14.30;;;;;;;1.09;67.41;98273.54;107586;1257;62136;-40
2023/03/07 01:52:27;;;;;;;22.00;15.10;;;;;;;1.14;67.37;98273.20;107625;1254;59834;-40
2023/03/07 01:55:18;;;;;;;23.40;15.50;;;;;;;1.15;67.17;98270.20;107490;1254;75094;-40
2023/03/07 01:57:50;;;;;;;24.80;15.20;;;;;;;1.16;67.17;98266.36;107516;1254;69630;-40
2023/03/07 02:00:28;;;;;;;25.30;15.50;;;;;;;1.17;67.13;98263.59;107531;1254;72122;-40
2023/03/07 02:03:19;;;;;;;22.90;15.50;;;;;;;1.19;66.90;98264.42;107635;1254;60575;-40
2023/03/07 02:05:52;;;;;;;23.30;15.10;;;;;;;1.19;66.83;98259.15;106867;1254;1003359;-40
2023/03/07 02:08:21;;;;;;;25.70;15.80;;;;;;;1.16;66.71;98253.92;107497;1260;73788;-40
2023/03/07 02:10:50;;;;;;;17.30;11.60;;;;;;;1.12;66.68;98252.39;107619;1257;69627;-40
2023/03/07 02:13:19;;;;;;;26.20;15.20;;;;;;;1.08;66.52;98246.44;107498;1254;73949;-40
2023/03/07 02:15:49;;;;;;;24.50;15.60;;;;;;;1.05;66.85;98246.71;107557;1254;60706;-40
2023/03/07 02:18:22;;;;;;;25.50;16.40;;;;;;;1.03;66.96;98243.59;107496;1254;61365;-40
2023/03/07 02:21:11;;;;;;;28.40;17.20;;;;;;;1.07;66.76;98242.45;107518;1254;74825;-40
2023/03/07 02:24:06;;;;;;;27.00;16.40;;;;;;;1.18;66.59;98238.52;107644;1253;69948;-40
2023/03/07 02:26:42;;;;;;;28.80;17.20;;;;;;;1.19;66.58;98239.08;107519;1254;74303;-40
2023/03/07 02:29:12;;;;;;;29.30;16.00;;;;;;;1.21;66.50;98233.66;107651;1254;60531;-40
2023/03/07 02:31:41;;;;;;;33.60;17.60;;;;;;;1.23;66.46;98229.02;107520;1259;60559;-40
2023/03/07 02:34:16;;;;;;;30.00;17.00;;;;;;;1.25;66.25;98234.20;107626;1255;75067;-40
2023/03/07 02:36:46;;;;;;;26.20;16.60;;;;;;;1.26;66.09;98229.80;107481;1254;69675;-40
2023/03/07 02:39:18;;;;;;;27.20;17.40;;;;;;;1.25;66.08;98226.97;107624;1253;72413;-40
2023/03/07 02:41:46;;;;;;;24.60;16.20;;;;;;;1.25;66.13;98226.06;107546;1254;60459;-40
2023/03/07 02:44:22;;;;;;;27.60;16.10;;;;;;;1.26;66.06;98222.41;107506;1259;61350;-40
2023/03/07 02:46:51;;;;;;;26.10;16.70;;;;;;;1.25;65.88;98223.81;107639;1254;75120;-40
2023/03/07 02:49:20;;;;;;;25.80;16.30;;;;;;;1.19;65.98;98224.60;107657;1254;69776;-40
2023/03/07 02:51:56;;;;;;;25.40;15.50;;;;;;;1.15;66.12;98228.02;107480;1253;73537;-40
2023/03/07 02:54:25;;;;;;;23.30;15.20;;;;;;;1.16;65.91;98235.30;107645;1256;62348;-40
2023/03/07 02:56:54;;;;;;;24.90;15.00;;;;;;;1.17;65.83;98236.05;107664;1257;60444;-40
2023/03/07 02:59:22;;;;;;;24.70;15.60;;;;;;;1.16;65.91;98229.14;107538;1254;74311;-40
2023/03/07 03:01:51;;;;;;;26.80;15.00;;;;;;;1.18;66.03;98221.73;107433;1254;69938;-40
2023/03/07 03:04:20;;;;;;;24.60;15.10;;;;;;;1.17;65.83;98216.51;107582;1255;73882;-40
2023/03/07 03:06:48;;;;;;;16.80;11.10;;;;;;;1.19;65.94;98219.92;107395;1254;61102;-40
2023/03/07 03:09:17;;;;;;;25.20;15.20;;;;;;;1.17;65.94;98214.91;107540;1253;61524;-40
2023/03/07 03:11:48;;;;;;;22.30;13.80;;;;;;;1.16;65.71;98216.83;107587;1257;75003;-40
2023/03/07 03:14:17;;;;;;;24.30;14.30;;;;;;;1.13;65.72;98218.36;107570;1254;69603;-40
2023/03/07 03:16:45;;;;;;;22.40;15.00;;;;;;;1.14;65.83;98217.45;107589;1254;73874;-40
2023/03/07 03:19:17;;;;;;;26.80;15.20;;;;;;;1.14;65.90;98218.67;107571;1254;60589;-40
2023/03/07 03:21:46;;;;;;;15.10;9.20;;;;;;;1.13;65.90;98209.51;107571;1254;61974;-40
2023/03/07 03:24:15;;;;;;;17.80;10.30;;;;;;;1.15;65.96;98206.91;107625;1257;74908;-40
2023/03/07 03:26:44;;;;;;;19.70;12.50;;;;;;;1.20;65.56;98207.23;107648;1257;69996;-40
2023/03/07 03:29:13;;;;;;;21.00;12.70;;;;;;;1.27;65.72;98201.65;107640;1255;73821;-40
2023/03/07 03:31:43;;;;;;;20.80;12.70;;;;;;;1.33;65.46;98201.85;107584;1254;60799;-40
2023/03/07 03:34:12;;;;;;;;;;;;;;;1.39;65.33;98205.91;107640;1254;61196;-40
2023/03/07 03:36:41;;;;;;;26.60;13.50;;;;;;;1.35;65.31;98203.95;107470;1254;74781;-40
2023/03/07 03:39:09;;;;;;;20.90;12.40;;;;;;;1.30;65.31;98199.60;107558;1257;69657;-40
2023/03/07 03:41:44;;;;;;;20.80;12.20;;;;;;;1.34;65.30;98201.14;107543;1254;73510;-40
2023/03/07 03:44:13;;;;;;;24.40;13.10;;;;;;;1.34;65.34;98198.42;107574;1257;60683;-40
2023/03/07 03:46:44;;;;;;;20.50;12.40;;;;;;;1.33;65.22;98204.36;107551;1257;61309;-40
2023/03/07 03:49:13;;;;;;;22.60;12.50;;;;;;;1.32;65.31;98203.39;107628;1256;73821;-40
2023/03/07 03:51:44;;;;;;;23.20;12.40;;;;;;;1.32;65.38;98201.32;106781;1259;1003097;-40
2023/03/07 03:54:12;;;;;;;22.20;12.30;;;;;;;1.32;65.40;98198.29;107486;1254;72918;-40
2023/03/07 03:56:43;;;;;;;15.50;10.90;;;;;;;1.40;65.31;98194.15;107525;1257;60466;-40
2023/03/07 03:59:11;;;;;;;21.10;12.40;;;;;;;1.47;65.04;98197.46;107546;1254;60666;-40
2023/03/07 04:01:40;;;;;;;23.40;13.00;;;;;;;1.52;64.73;98194.72;107548;1257;73826;-40
2023/03/07 04:04:09;;;;;;;12.50;8.30;;;;;;;1.54;64.79;98196.57;107536;1254;68752;-40
2023/03/07 04:06:38;;;;;;;22.60;12.40;;;;;;;1.58;64.65;98189.06;107517;1258;73809;-40
2023/03/07 04:09:11;;;;;;;24.40;13.40;;;;;;;1.61;64.76;98196.73;107347;1254;60473;-40
2023/03/07 04:11:44;;;;;;;21.10;12.60;;;;;;;1.61;64.57;98195.28;107499;1254;61489;-40
2023/03/07 04:14:13;;;;;;;19.00;12.30;;;;;;;1.59;64.58;98199.57;107491;1254;74792;-40
2023/03/07 04:16:43;;;;;;;19.50;12.60;;;;;;;1.56;64.69;98197.77;107576;1258;69727;-40
2023/03/07 04:19:11;;;;;;;22.10;13.00;;;;;;;1.53;64.84;98193.92;107534;1254;73850;-40
2023/03/07 04:21:43;;;;;;;20.70;13.60;;;;;;;1.51;64.86;98183.35;107518;1254;60780;-40
2023/03/07 04:24:18;;;;;;;21.90;12.30;;;;;;;1.55;64.90;98177.42;107482;1254;61514;-40
2023/03/07 04:26:47;;;;;;;20.20;11.70;;;;;;;1.58;64.85;98174.55;107589;1254;74742;-40
2023/03/07 04:29:15;;;;;;;19.50;10.80;;;;;;;1.63;64.57;98174.27;107540;1260;69630;-40
2023/03/07 04:31:51;;;;;;;18.40;11.60;;;;;;;1.73;64.41;98177.08;107515;1256;73056;-40
2023/03/07 04:34:19;;;;;;;22.70;11.70;;;;;;;1.77;64.51;98172.01;107448;1260;60769;-40
2023/03/07 04:36:48;;;;;;;18.80;12.10;;;;;;;1.80;64.28;98172.48;107354;1260;61513;-40
2023/03/07 04:39:16;;;;;;;21.90;12.60;;;;;;;1.82;64.12;98178.83;107455;1254;75162;-40
2023/03/07 04:41:48;;;;;;;20.30;12.80;;;;;;;1.83;64.05;98183.98;107501;1259;69408;-40
2023/03/07 04:44:20;;;;;;;19.90;12.00;;;;;;;1.83;64.32;98189.26;107537;1259;73527;-40
2023/03/07 04:46:48;;;;;;;23.50;13.10;;;;;;;1.83;64.17;98188.48;107449;1254;167944;-40
2023/03/07 04:50:53;;;;;;;22.30;12.70;;;;;;;1.77;64.18;98189.66;104344;1293;600260;-40
2023/03/07 04:53:24;;;;;;;19.30;12.10;;;;;;;1.69;64.36;98188.98;106710;1264;60425;-40
2023/03/07 04:55:57;;;;;;;21.50;12.60;;;;;;;1.65;64.57;98190.30;106735;1263;59866;-40
2023/03/07 04:58:27;;;;;;;24.30;12.30;;;;;;;1.61;64.64;98188.34;106689;1264;73535;-40
2023/03/07 05:00:56;;;;;;;18.30;10.80;;;;;;;1.61;65.08;98192.17;106759;1264;68702;-40
2023/03/07 05:03:26;;;;;;;;;;;;;;;1.66;65.68;98190.19;106671;1264;207600;-40
2023/03/07 05:05:55;;;;;;;16.50;11.40;;;;;;;1.61;66.70;98191.23;106924;1262;60471;-40
2023/03/07 05:08:25;;;;;;;16.90;11.00;;;;;;;1.55;67.82;98189.56;106830;1263;59536;-40
2023/03/07 05:10:54;;;;;;;18.20;11.70;;;;;;;1.54;69.11;98189.84;106899;1264;73147;-40
2023/03/07 05:13:23;;;;;;;16.30;10.60;;;;;;;1.50;70.10;98193.73;106879;1264;69942;-40
2023/03/07 05:15:53;;;;;;;15.30;10.40;;;;;;;1.50;70.90;98192.97;107215;1259;71935;-40
2023/03/07 05:18:23;;;;;;;17.60;10.90;;;;;;;1.52;71.72;98192.50;107086;1259;60905;-39
2023/03/07 05:20:52;;;;;;;19.10;11.40;;;;;;;1.50;72.74;98193.36;107232;1260;60128;-40
2023/03/07 05:23:20;;;;;;;19.10;11.80;;;;;;;1.48;73.43;98198.27;107103;1260;74129;-40
2023/03/07 05:25:50;;;;;;;;;;;;;;;1.45;74.18;98200.73;107194;1263;69860;-40
2023/03/07 05:28:19;;;;;;;17.90;11.10;;;;;;;1.35;75.17;98194.27;107199;1260;72302;-40
2023/03/07 05:30:48;;;;;;;16.00;10.90;;;;;;;1.32;76.16;98195.61;107091;1258;62183;-40
2023/03/07 05:33:17;;;;;;;16.90;10.80;;;;;;;1.33;76.43;98198.23;106984;1260;61190;-40
2023/03/07 05:35:46;;;;;;;19.60;11.80;;;;;;;1.30;76.84;98196.63;107220;1258;73055;-40
2023/03/07 05:38:16;;;;;;;18.60;11.60;;;;;;;1.26;77.46;98194.33;107074;1261;69702;-40
2023/03/07 05:40:44;;;;;;;18.20;11.30;;;;;;;1.22;77.78;98199.99;107089;1260;72929;-40
2023/03/07 05:43:14;;;;;;;20.20;10.60;;;;;;;1.23;77.94;98193.60;107121;1261;62144;-40
2023/03/07 05:45:43;;;;;;;15.60;10.30;;;;;;;1.26;78.30;98193.52;107039;1259;61977;-40
2023/03/07 05:48:11;;;;;;;14.90;11.50;;;;;;;1.28;78.44;98191.08;107116;1260;73074;-40
2023/03/07 05:50:41;;;;;;;16.80;12.50;;;;;;;1.27;78.86;98191.09;107203;1262;68294;-40
2023/03/07 05:53:12;;;;;;;17.20;11.90;;;;;;;1.25;79.43;98193.52;107078;1260;71489;-40
2023/03/07 05:55:44;;;;;;;16.50;11.70;;;;;;;1.25;79.70;98197.89;107053;1260;62420;-40
2023/03/07 05:58:15;;;;;;;16.90;11.70;;;;;;;1.32;79.56;98195.98;107210;1258;61190;-40
2023/03/07 06:00:45;;;;;;;17.30;11.20;;;;;;;1.25;79.71;98183.16;107225;1258;74221;-40
2023/03/07 06:03:14;;;;;;;16.90;11.90;;;;;;;1.30;79.89;98197.85;107074;1261;69922;-40
2023/03/07 06:05:43;;;;;;;18.40;11.90;;;;;;;1.27;80.17;98196.14;107099;1260;73651;-40
2023/03/07 06:08:14;;;;;;;15.70;10.80;;;;;;;1.29;80.33;98200.55;107078;1259;62099;-40
2023/03/07 06:10:43;;;;;;;15.70;11.20;;;;;;;1.33;80.29;98198.39;107111;1258;61199;-40
2023/03/07 06:13:14;;;;;;;19.10;12.40;;;;;;;1.30;80.39;98199.59;107085;1260;71790;-40
2023/03/07 06:15:43;;;;;;;17.70;12.30;;;;;;;1.27;80.65;98202.67;107098;1261;69729;-40
2023/03/07 06:18:13;;;;;;;14.60;10.60;;;;;;;1.26;80.74;98199.77;107118;1261;73810;-40
2023/03/07 06:20:42;;;;;;;16.70;11.30;;;;;;;1.29;80.81;98197.58;107043;1263;60795;-40
2023/03/07 06:23:11;;;;;;;16.20;11.70;;;;;;;1.29;80.51;98195.98;107108;1259;61525;-40
2023/03/07 06:25:41;;;;;;;20.10;12.60;;;;;;;1.28;80.64;98193.41;107109;1260;72918;-40
2023/03/07 06:28:10;;;;;;;16.70;11.20;;;;;;;1.24;80.99;98190.02;107071;1260;68935;-40
2023/03/07 06:30:39;;;;;;;17.50;11.80;;;;;;;1.27;81.03;98187.98;107075;1260;73909;-40
2023/03/07 06:33:08;;;;;;;17.50;11.90;;;;;;;1.34;81.00;98190.88;106940;1260;60593;-40
2023/03/07 06:35:39;;;;;;;18.50;12.70;;;;;;;1.36;80.94;98189.17;107098;1261;61607;-40
2023/03/07 06:38:08;;;;;;;18.20;12.40;;;;;;;1.36;81.16;98189.95;107029;1259;74360;-40
2023/03/07 06:40:36;;;;;;;17.30;11.40;;;;;;;1.35;81.49;98189.70;107086;1260;69696;-40
2023/03/07 06:43:05;;;;;;;16.60;11.60;;;;;;;1.41;81.35;98190.50;107027;1259;72622;-40
2023/03/07 06:45:33;;;;;;;15.60;11.30;;;;;;;1.49;80.94;98187.02;107134;1263;59666;-40
2023/03/07 06:48:03;;;;;;;17.00;12.30;;;;;;;1.54;81.18;98186.80;107105;1260;61274;-40
2023/03/07 06:50:32;;;;;;;18.30;12.40;;;;;;;1.56;81.00;98185.04;107106;1258;73884;-40
2023/03/07 06:53:03;;;;;;;19.10;12.00;;;;;;;1.56;80.94;98189.61;107146;1260;68889;-40
2023/03/07 06:55:33;;;;;;;16.20;11.40;;;;;;;1.59;80.80;98185.69;107065;1260;73528;-40
2023/03/07 06:58:03;;;;;;;15.90;11.30;;;;;;;1.66;80.73;98188.27;107152;1260;60064;-40
2023/03/07 07:00:32;;;;;;;17.70;11.90;;;;;;;1.66;80.82;98195.23;107134;1263;60953;-40
2023/03/07 07:03:01;;;;;;;16.80;12.70;;;;;;;1.64;80.79;98193.71;107079;1260;73938;-40
2023/03/07 07:05:30;;;;;;;19.40;12.20;;;;;;;1.61;80.92;98192.77;107141;1258;68728;-40
2023/03/07 07:07:59;;;;;;;14.90;11.10;;;;;;;1.62;80.90;98192.89;107106;1261;73987;-40
2023/03/07 07:10:28;;;;;;;16.10;11.10;;;;;;;1.68;80.86;98188.59;107094;1260;59633;-39
2023/03/07 07:12:57;;;;;;;17.60;11.30;;;;;;;1.71;80.84;98195.00;107085;1260;61210;-40
2023/03/07 07:15:31;;;;;;;15.20;11.30;;;;;;;1.70;81.05;98198.42;107087;1259;72947;-40
2023/03/07 07:18:01;;;;;;;19.50;11.90;;;;;;;1.70;81.13;98198.56;107134;1260;70103;-40
2023/03/07 07:20:34;;;;;;;15.20;11.10;;;;;;;1.76;80.91;98195.19;106939;1260;74231;-40
2023/03/07 07:23:04;;;;;;;16.90;12.10;;;;;;;1.83;80.77;98195.64;106921;1260;60160;-40
2023/03/07 07:25:32;;;;;;;14.80;11.40;;;;;;;1.86;80.80;98197.81;107073;1260;61538;-40
2023/03/07 07:28:01;;;;;;;18.60;11.50;;;;;;;1.88;80.64;98198.66;106972;1260;74315;-40
2023/03/07 07:30:30;;;;;;;14.70;11.20;;;;;;;1.94;80.50;98199.48;107033;1264;69933;-40
2023/03/07 07:33:01;;;;;;;16.00;11.40;;;;;;;2.02;80.15;98205.47;107037;1260;73871;-40
2023/03/07 07:35:30;;;;;;;16.90;11.90;;;;;;;2.02;79.96;98206.08;106910;1260;60760;-40
2023/03/07 07:38:00;;;;;;;18.90;12.80;;;;;;;1.97;80.09;98203.32;106994;1260;61592;-40
2023/03/07 07:40:29;;;;;;;19.10;12.30;;;;;;;1.95;80.28;98201.64;107053;1260;74176;-40
2023/03/07 07:42:58;;;;;;;14.90;9.70;;;;;;;1.99;80.34;98199.59;107070;1259;69559;-40
2023/03/07 07:45:33;;;;;;;18.10;11.70;;;;;;;2.09;80.42;98198.07;107068;1260;72424;-40
2023/03/07 07:48:04;;;;;;;17.00;12.30;;;;;;;2.15;80.58;98199.66;107066;1263;59707;-40
2023/03/07 07:50:33;;;;;;;17.50;11.90;;;;;;;2.26;80.44;98198.25;107120;1259;59541;-40
2023/03/07 07:53:02;;;;;;;18.10;12.20;;;;;;;2.38;79.93;98196.80;107052;1260;74295;-40
2023/03/07 07:55:31;;;;;;;17.70;11.30;;;;;;;2.53;79.37;98194.52;106960;1260;67799;-40
2023/03/07 07:58:00;;;;;;;19.40;11.90;;;;;;;2.69;78.67;98203.05;107015;1260;71203;-40
2023/03/07 08:00:30;;;;;;;16.40;11.70;;;;;;;2.77;78.20;98195.42;106994;1259;59717;-40
2023/03/07 08:02:59;;;;;;;16.00;11.60;;;;;;;2.78;77.80;98198.84;107006;1260;61906;-40
2023/03/07 08:05:28;;;;;;;13.40;9.40;;;;;;;2.77;77.49;98193.71;107033;1259;74083;-40
2023/03/07 08:07:57;;;;;;;13.40;9.90;;;;;;;2.80;77.50;98193.23;107033;1260;69592;-40
2023/03/07 08:10:26;;;;;;;15.00;11.30;;;;;;;2.85;77.15;98200.39;106964;1260;73937;-40
2023/03/07 08:12:54;;;;;;;16.00;10.70;;;;;;;2.83;76.91;98198.58;106967;1260;60810;-40
2023/03/07 08:15:23;;;;;;;16.80;12.10;;;;;;;2.76;76.69;98198.05;107006;1259;61902;-40
2023/03/07 08:17:53;;;;;;;16.20;11.60;;;;;;;2.71;76.99;98202.86;107020;1260;73953;-40
2023/03/07 08:20:28;;;;;;;13.80;11.10;;;;;;;2.77;77.17;98199.61;107042;1260;68723;-40
2023/03/07 08:22:56;;;;;;;15.80;11.70;;;;;;;2.82;76.82;98202.00;107085;1259;73598;-40
2023/03/07 08:25:25;;;;;;;16.80;12.10;;;;;;;2.84;76.37;98198.75;107000;1260;60612;-40
2023/03/07 08:27:54;;;;;;;15.30;11.50;;;;;;;2.81;76.36;98200.81;107016;1260;61547;-40
2023/03/07 08:30:25;;;;;;;;;;;;;;;2.79;76.34;98200.37;106992;1260;75140;-40
2023/03/07 08:32:55;;;;;;;14.90;10.80;;;;;;;2.81;76.38;98198.90;107032;1260;70156;-40
2023/03/07 08:35:25;;;;;;;17.90;12.10;;;;;;;2.85;76.09;98196.56;107431;1256;73892;-40
2023/03/07 08:37:55;;;;;;;19.90;12.60;;;;;;;2.88;75.73;98201.63;107330;1257;60468;-40
2023/03/07 08:40:24;;;;;;;10.70;8.70;;;;;;;2.94;75.60;98203.89;107292;1257;60190;-40
2023/03/07 08:42:54;;;;;;;18.50;13.10;;;;;;;3.04;75.30;98197.91;107359;1256;73522;-41
2023/03/07 08:45:23;;;;;;;15.80;12.00;;;;;;;3.19;74.73;98197.82;107259;1257;69976;-40
2023/03/07 08:47:53;;;;;;;16.10;10.80;;;;;;;3.36;74.16;98200.36;107370;1257;73938;-40
2023/03/07 08:50:24;;;;;;;18.60;12.40;;;;;;;3.48;74.14;98199.03;107276;1257;60576;-40
2023/03/07 08:52:54;;;;;;;16.40;12.60;;;;;;;3.58;73.22;98202.42;107405;1257;61526;-40
2023/03/07 08:55:22;;;;;;;16.90;12.30;;;;;;;3.61;71.53;98214.83;107372;1257;74213;-40
2023/03/07 08:57:50;;;;;;;17.40;12.60;;;;;;;3.52;70.33;98219.56;107370;1260;69073;-40
2023/03/07 09:00:20;;;;;;;15.40;11.40;;;;;;;3.43;70.22;98223.85;107322;1256;73812;-41
2023/03/07 09:02:48;;;;;;;16.30;12.30;;;;;;;3.38;69.68;98229.29;107356;1257;59253;-40
2023/03/07 09:05:17;;;;;;;18.20;12.30;;;;;;;3.30;70.27;98224.29;107351;1256;60456;-41
2023/03/07 09:07:45;;;;;;;19.80;14.00;;;;;;;3.18;69.99;98224.03;107410;1257;74438;-40
2023/03/07 09:10:18;;;;;;;17.10;12.60;;;;;;;3.09;70.50;98225.61;107395;1260;69085;-40
2023/03/07 09:12:47;;;;;;;17.00;12.40;;;;;;;3.03;70.94;98224.13;107347;1256;71654;-40
2023/03/07 09:15:17;;;;;;;15.90;11.10;;;;;;;3.07;70.85;98224.92;107304;1257;62412;-41
2023/03/07 09:17:45;;;;;;;17.40;12.30;;;;;;;3.24;70.83;98220.46;107356;1257;60287;-40
2023/03/07 09:20:17;;;;;;;16.80;12.80;;;;;;;3.49;70.12;98223.19;107290;1256;74906;-40
2023/03/07 09:22:46;;;;;;;15.90;12.40;;;;;;;3.84;69.70;98217.45;107292;1260;69996;-40
2023/03/07 09:25:15;;;;;;;16.80;12.50;;;;;;;4.20;69.95;98219.70;107340;1257;72102;-40
2023/03/07 09:27:44;;;;;;;16.10;12.40;;;;;;;4.55;68.02;98217.11;107325;1256;62442;-40
2023/03/07 09:30:13;;;;;;;17.40;12.00;;;;;;;4.87;65.78;98213.65;107379;1256;60309;-40
2023/03/07 09:32:42;;;;;;;16.70;12.40;;;;;;;5.04;64.58;98208.42;107394;1257;73878;-40
2023/03/07 09:35:11;;;;;;;14.60;11.70;;;;;;;5.19;64.76;98209.14;107369;1256;68311;-40
2023/03/07 09:37:40;;;;;;;16.30;12.70;;;;;;;5.37;63.34;98215.83;107463;1255;74359;-40
2023/03/07 09:40:15;;;;;;;16.80;12.20;;;;;;;5.51;62.67;98211.65;107427;1256;60476;-40
2023/03/07 09:43:08;;;;;;;18.90;13.10;;;;;;;5.62;62.26;98216.56;107381;1257;61573;-40
2023/03/07 09:45:52;;;;;;;16.20;13.20;;;;;;;5.76;61.68;98217.27;107319;1255;74966;-40
2023/03/07 09:49:04;;;;;;;15.40;12.30;;;;;;;5.89;61.20;98211.85;107287;1256;69858;-40
2023/03/07 09:51:37;;;;;;;16.30;12.30;;;;;;;6.01;60.56;98219.27;107031;1256;73762;-40
2023/03/07 09:54:34;;;;;;;17.30;12.70;;;;;;;5.95;60.09;98221.45;107350;1260;60717;-40
2023/03/07 09:57:04;;;;;;;18.00;12.60;;;;;;;5.75;60.86;98224.27;107322;1256;61532;-41
2023/03/07 09:59:40;;;;;;;;;;;;;;;5.50;60.45;98226.46;107287;1257;74528;-40
2023/03/07 10:02:35;;;;;;;14.60;11.40;;;;;;;5.25;60.45;98221.70;107363;1257;69590;-40
2023/03/07 10:05:30;;;;;;;16.70;12.50;;;;;;;5.17;62.10;98221.23;107299;1256;73423;-40
2023/03/07 10:08:00;;;;;;;15.80;12.60;;;;;;;5.35;62.04;98211.92;107356;1256;60542;-41
2023/03/07 10:11:02;;;;;;;15.60;12.60;;;;;;;5.50;61.40;98214.31;107216;1256;61541;-40
2023/03/07 10:13:57;;;;;;;15.60;12.80;;;;;;;5.68;60.99;98207.30;107323;1257;74609;-40
2023/03/07 10:16:30;;;;;;;15.20;11.80;;;;;;;5.90;61.34;98205.74;107273;1257;70005;-40
2023/03/07 10:19:08;;;;;;;19.90;13.90;;;;;;;6.00;59.71;98206.63;104354;1257;1003737;-40
2023/03/07 10:21:40;;;;;;;18.00;12.60;;;;;;;6.04;59.21;98201.54;107341;1257;60554;-40
2023/03/07 10:24:36;;;;;;;18.70;12.60;;;;;;;6.08;58.89;98197.48;107348;1257;61567;-40
2023/03/07 10:27:06;;;;;;;17.90;13.60;;;;;;;6.09;58.76;98195.48;107261;1257;75114;-41
2023/03/07 10:29:45;;;;;;;15.50;12.60;;;;;;;5.99;58.93;98195.86;107344;1257;67775;-40
2023/03/07 10:32:24;;;;;;;17.40;13.40;;;;;;;5.84;58.43;98195.77;107372;1257;72627;-40
2023/03/07 10:35:19;;;;;;;17.20;13.10;;;;;;;5.66;58.86;98190.21;107399;1257;60762;-40
2023/03/07 10:38:33;;;;;;;17.30;13.20;;;;;;;5.51;59.75;98189.85;107281;1256;61572;-40
2023/03/07 10:41:10;;;;;;;17.00;12.70;;;;;;;5.38;60.42;98184.67;107167;1257;75119;-40
2023/03/07 10:43:39;;;;;;;19.00;13.90;;;;;;;5.30;60.39;98181.80;107448;1256;68402;-41
2023/03/07 10:46:11;;;;;;;17.10;13.10;;;;;;;5.26;59.94;98177.05;107474;1255;73794;-41
2023/03/07 10:49:07;;;;;;;20.10;14.60;;;;;;;5.20;60.06;98180.85;107372;1257;60757;-41
2023/03/07 10:52:00;;;;;;;19.00;14.30;;;;;;;5.11;60.39;98182.94;107337;1256;61568;-41
2023/03/07 10:54:30;;;;;;;17.80;13.10;;;;;;;4.96;60.91;98171.73;107423;1255;75112;-40
2023/03/07 10:57:09;;;;;;;17.90;13.70;;;;;;;4.95;60.72;98176.77;107471;1257;68309;-41
2023/03/07 10:59:47;;;;;;;17.40;13.30;;;;;;;4.89;61.19;98175.80;107480;1258;73455;-41
2023/03/07 11:02:35;;;;;;;16.50;13.10;;;;;;;4.87;61.30;98175.05;107455;1255;62422;-41
2023/03/07 11:05:29;;;;;;;17.30;11.90;;;;;;;4.85;61.68;98171.27;107431;1257;60367;-40
2023/03/07 11:07:59;;;;;;;17.30;12.50;;;;;;;4.84;61.47;98177.52;107402;1256;75070;-40
2023/03/07 11:10:39;;;;;;;18.30;12.90;;;;;;;4.87;61.50;98182.81;107431;1255;68873;-41
2023/03/07 11:13:16;;;;;;;17.00;12.40;;;;;;;4.93;61.20;98174.79;107423;1254;71668;-41
2023/03/07 11:15:45;;;;;;;14.20;11.70;;;;;;;4.99;60.96;98174.95;107458;1254;60639;-41
2023/03/07 11:18:43;;;;;;;14.40;11.20;;;;;;;5.06;60.44;98170.02;107450;1256;59211;-41
2023/03/07 11:21:30;;;;;;;14.30;11.10;;;;;;;5.15;60.13;98173.22;107319;1257;74463;-40
2023/03/07 11:24:15;;;;;;;15.40;11.20;;;;;;;5.26;59.19;98174.44;107513;1254;68524;-41
2023/03/07 11:26:44;;;;;;;12.90;10.90;;;;;;;5.39;58.31;98175.31;107436;1257;73521;-40
2023/03/07 11:29:13;;;;;;;13.90;10.80;;;;;;;5.48;58.01;98175.02;107279;1256;60546;-41
2023/03/07 11:31:58;;;;;;;14.90;11.60;;;;;;;5.56;56.54;98169.05;107270;1257;61202;-41
2023/03/07 11:34:52;;;;;;;14.70;11.20;;;;;;;5.63;56.73;98174.26;107402;1257;74775;-41
2023/03/07 11:37:25;;;;;;;16.00;11.60;;;;;;;5.67;56.27;98171.27;107376;1256;70062;-41
2023/03/07 11:40:30;;;;;;;13.80;10.70;;;;;;;5.68;55.23;98165.83;107427;1258;75053;-40
2023/03/07 11:43:10;;;;;;;14.40;10.70;;;;;;;5.69;54.93;98171.84;107439;1257;60491;-41
2023/03/07 11:45:54;;;;;;;12.70;9.60;;;;;;;5.68;54.06;98169.73;107408;1257;61198;-41